Accueil
METAR-TAF:

METAR-TAF

Aéroports :

Aéroport de Londres-City

Londres, Angleterre

latitude: 51-30N, longitude: 000-03E, altitude: 5 m

Observation

Le bulletin a été fait il y a 1 heure et 0 minutes, à 03:50 UTC
Vent 4 kt de ouest/nord-ouest
Température 15°C
Humidité 67%
Pression 1028 hPa
Visibilité: 0750 m
brouillard

METAR: EGLC 060350Z AUTO 30004KT 0750 R27/P1500N FG NCD 15/09 Q1028

Heure: 05:50 (04:50 UTC)

Prévision

Le bulletin a été fait il y a 2 heures et 52 minutes, à 01:58 UTC
Prévision valable du 06 à 03 UTC au 06 à 12 UTC
Vent 5 kt de nord-ouest
Visibilité 10 km ou plus
Nuages épars à une hauteur de 4500 ft
Temporairement
du 06 à 06 UTC au 06 à 08 UTC
Nuages fragmentés à une hauteur de 1400 ft

TAF: EGLC 060158Z 0603/0612 31005KT 9999 SCT045 TEMPO 0606/0608 BKN014

Observations et prévisions météorologiques de plus de 4000 aéroports (messages METAR et TAF).

Les stations disponibles sont représentées par des disques jaunes et rouges sur la carte.

Passer la souris dessus pour voir le nom de la station.

Cliquer dessus pour voir les observations et prévisions météorologiques.

Pour changer de carte: cliquez sur les boutons verts avec une croix noire pour zoomer, sur le bouton vert avec un tiret pour effectuer un zoom arrière, ou sur les flèches vertes pour les cartes adjacentes.


METAR-TAF: